Thunder radar more information blitzortung!


Radar de pluja more information rain snow radar


Visita la nostra xarxa de llocs de meteo:

Template documentation
and downloads

And another site



No particular awareness of the weather is required.    There are no Weather-warnings

Pagina Historial Weather Underground text

Diari Resum Marc 26, 2016 Unitats:  Mètric    Imperial   Tant
« Previous Dia
SegĂźent Dia »
Diari Setmana Mensual Anual Personalitzada
  Maxima: Minima: Media:
Temperatura: -17.8 °C -12.3 °C -9.2 °C
Punt de rosada: -17.8 °C -15.2 °C -13.3 °C
Humitat: Humidity % 49 % 62 %
Wind Speed: 0 km/h 0 km/h 14.8 km/h
RĂ fegues de vent: 0 km/h - -
Vent:- - SW
Pression baro: 0 hPa 34428.8 hPa -
Precipitacions: 0 mm    
Historical Graphs
 
 
Dades de taula per Marc 26, 2016
Temps Temperatura Punt de rosada Pression baro Vent Wind Speed RĂ fegues de vent Humitat Rainfall Rate (Hourly)
-17.8 °C -17.8 °C 0 hPa Calm     Humidity % 0 mm
00:00 -12.1 °C -13.7 °C 34601.5 hPa NNE 6.8 km/h 6.8 km/h 82 % 0 mm
00:10 -12.2 °C -13.7 °C 34601.5 hPa Calm     84 % 0 mm
00:20 -12.2 °C -13.7 °C 34601.5 hPa South 2.6 km/h 2.6 km/h 84 % 0 mm
00:30 -12.3 °C -13.7 °C 34601.5 hPa SW 2.6 km/h 2.6 km/h 84 % 0 mm
00:40 -12.3 °C -13.6 °C 34635.4 hPa Calm     85 % 0 mm
00:50 -12.3 °C -13.8 °C 34635.4 hPa SW 5.1 km/h 7.7 km/h 84 % 0 mm
01:00 -12.3 °C -13.8 °C 34567.7 hPa SW 5.1 km/h 5.1 km/h 84 % 0 mm
01:10 -12.3 °C -13.8 °C 34567.7 hPa SW 5.1 km/h 7.7 km/h 84 % 0 mm
01:20 -12.3 °C -13.7 °C 34567.7 hPa SW 5.1 km/h 7.7 km/h 85 % 0 mm
01:30 -12.3 °C -13.7 °C 34601.5 hPa SW 7.7 km/h 10.3 km/h 85 % 0 mm
01:40 -12.3 °C -13.5 °C 34601.5 hPa Calm   7.7 km/h 86 % 0 mm
01:50 -12.2 °C -13.4 °C 34601.5 hPa Calm   5.1 km/h 87 % 0 mm
02:00 -12.2 °C -13.4 °C 34601.5 hPa SW 2.6 km/h 5.1 km/h 86 % 0 mm
02:10 -12.2 °C -13.5 °C 34601.5 hPa SW 2.6 km/h 5.1 km/h 85 % 0 mm
02:20 -12.1 °C -13.4 °C 34601.5 hPa Calm     86 % 0 mm
02:30 -11.9 °C -13.2 °C 34601.5 hPa Calm   2.6 km/h 86 % 0 mm
02:40 -11.8 °C -13.1 °C 34601.5 hPa Calm   2.6 km/h 85 % 0 mm
02:50 -11.7 °C -13.1 °C 34601.5 hPa Calm   5.1 km/h 84 % 0 mm
03:00 -11.5 °C -13.1 °C 34601.5 hPa Calm   5.1 km/h 83 % 0 mm
03:10 -11.4 °C -12.9 °C 34601.5 hPa Calm   7.7 km/h 83 % 0 mm
03:20 -11.3 °C -12.9 °C 34601.5 hPa SW 7.7 km/h 7.7 km/h 82 % 0 mm
03:30 -11.2 °C -12.9 °C 34601.5 hPa WSW 5.1 km/h 7.7 km/h 81 % 0 mm
03:40 -11.1 °C -12.8 °C 34635.4 hPa SW 2.6 km/h 10.3 km/h 81 % 0 mm
03:50 -10.8 °C -12.7 °C 34635.4 hPa SSW 2.6 km/h 7.7 km/h 80 % 0 mm
04:00 -10.7 °C -12.7 °C 34601.5 hPa SW 7.7 km/h 10.3 km/h 79 % 0 mm
10:09 -10.4 °C -12.4 °C 34601.5 hPa SW 12.7 km/h 12.7 km/h 79 % 0 mm
10:14 -10.2 °C -12.3 °C 34601.5 hPa WSW 11.9 km/h 11.9 km/h 78 % 0 mm
10:19 -10.1 °C -12.3 °C 34601.5 hPa SW 15 km/h 15 km/h 77 % 0 mm
10:24 -10 °C -12.2 °C 34601.5 hPa WSW 11.9 km/h 11.9 km/h 77 % 0 mm
10:29 -10 °C -12.4 °C 34601.5 hPa WSW 17.9 km/h 17.9 km/h 75 % 0 mm
10:34 -10.1 °C -12.6 °C 34601.5 hPa WNW 20.9 km/h 20.9 km/h 74 % 0 mm
10:39 -9.9 °C -12.4 °C 34601.5 hPa WSW 15.6 km/h 15.6 km/h 74 % 0 mm
10:44 -9.8 °C -12.5 °C 34601.5 hPa WSW 12.2 km/h 12.2 km/h 73 % 0 mm
10:49 -9.8 °C -12.5 °C 34601.5 hPa WSW 11.9 km/h 11.9 km/h 73 % 0 mm
10:54 -9.8 °C -12.5 °C 34601.5 hPa SSW 11.9 km/h 11.9 km/h 73 % 0 mm
10:59 -9.9 °C -12.7 °C 34601.5 hPa WSW 20.9 km/h 20.9 km/h 72 % 0 mm
11:04 -9.9 °C -12.8 °C 34601.5 hPa SW 17.9 km/h 17.9 km/h 71 % 0 mm
11:09 -9.8 °C -12.7 °C 34601.5 hPa SSW 20.9 km/h 20.9 km/h 71 % 0 mm
11:14 -9.7 °C -12.4 °C 34601.5 hPa SW 15 km/h 15 km/h 72 % 0 mm
11:19 -9.4 °C -12.3 °C 34601.5 hPa WSW 17.9 km/h 17.9 km/h 71 % 0 mm
11:24 -9.5 °C -12.4 °C 34601.5 hPa SSW 11.9 km/h 11.9 km/h 71 % 0 mm
11:29 -9.3 °C -12.2 °C 34601.5 hPa West 15 km/h 15 km/h 71 % 0 mm
11:34 -9.3 °C -12.3 °C 34601.5 hPa SSW 15.3 km/h 15.3 km/h 70 % 0 mm
11:39 -9.2 °C -12.3 °C 34601.5 hPa SW 11.9 km/h 11.9 km/h 70 % 0 mm
11:44 -8.9 °C -12 °C 34601.5 hPa SSW 15 km/h 15 km/h 70 % 0 mm
11:49 -8.7 °C -11.9 °C 34601.5 hPa SW 9.8 km/h 9.8 km/h 69 % 0 mm
11:54 -8.9 °C -12.1 °C 34567.7 hPa WSW 9.8 km/h 9.8 km/h 69 % 0 mm
12:04 -8.7 °C -12.1 °C 34567.7 hPa WSW 16.6 km/h 16.6 km/h 67 % 0 mm
12:09 -8.6 °C -12.1 °C 34601.5 hPa WSW 15 km/h 15 km/h 67 % 0 mm
12:14 -8.6 °C -12.1 °C 34601.5 hPa SSW 15 km/h 15 km/h 67 % 0 mm
12:19 -8.7 °C -12.1 °C 34601.5 hPa SW 9 km/h 9 km/h 67 % 0 mm
12:24 -8.5 °C -12.1 °C 34601.5 hPa WSW 15.6 km/h 15.6 km/h 66 % 0 mm
12:34 -7.9 °C -11.7 °C 34601.5 hPa SW 15 km/h 15 km/h 64 % 0 mm
12:44 -7.7 °C -11.8 °C 34567.7 hPa West 11.9 km/h 11.9 km/h 62 % 0 mm
12:49 -7.8 °C -11.9 °C 34567.7 hPa SSW 17.9 km/h 17.9 km/h 62 % 0 mm
12:54 -7.7 °C -11.8 °C 34567.7 hPa ESE 7.6 km/h 7.6 km/h 62 % 0 mm
12:59 -7.4 °C -11.7 °C 34567.7 hPa WSW 11.9 km/h 11.9 km/h 61 % 0 mm
13:04 -7.3 °C -11.7 °C 34567.7 hPa South 11.9 km/h 11.9 km/h 60 % 0 mm
13:09 -7.3 °C -11.9 °C 34567.7 hPa WSW 23.8 km/h 23.8 km/h 59 % 0 mm
13:14 -7.3 °C -11.9 °C 34567.7 hPa SSW 6 km/h 6.3 km/h 59 % 0 mm
13:19 -7.3 °C -12 °C 34567.7 hPa SW 20.9 km/h 20.9 km/h 58 % 0 mm
13:24 -7.2 °C -12.1 °C 34533.8 hPa SSW 15 km/h 15 km/h 57 % 0 mm
13:34 -7.2 °C -12.2 °C 34533.8 hPa SSW 23.8 km/h 23.8 km/h 56 % 0 mm
13:44 -7 °C -12.2 °C 34533.8 hPa SW 22.5 km/h 22.5 km/h 55 % 0 mm
13:49 -6.9 °C -12.1 °C 34533.8 hPa SW 15 km/h 15 km/h 55 % 0 mm
13:54 -7 °C -12.3 °C 34496.6 hPa SW 26.9 km/h 26.9 km/h 54 % 0 mm
13:59 -6.7 °C -12 °C 34496.6 hPa WSW 17.9 km/h 17.9 km/h 54 % 0 mm
14:09 -6.9 °C -12.6 °C 34533.8 hPa SSW 26.9 km/h 26.9 km/h 52 % 0 mm
14:14 -6.8 °C -12.4 °C 34533.8 hPa SSW 17.9 km/h 17.9 km/h 52 % 0 mm
14:19 -6.5 °C -12.2 °C 34533.8 hPa SSW 35.7 km/h 35.7 km/h 52 % 0 mm
14:24 -6.6 °C -12.3 °C 34496.6 hPa SSW 16.6 km/h 16.6 km/h 52 % 0 mm
14:29 -6.6 °C -12.3 °C 34496.6 hPa WSW 17.9 km/h 17.9 km/h 52 % 0 mm
14:34 -6.5 °C -12.3 °C 34496.6 hPa SSW 20.9 km/h 20.9 km/h 51 % 0 mm
14:44 -6.4 °C -12.2 °C 34496.6 hPa SW 25.9 km/h 25.9 km/h 51 % 0 mm
14:49 -6.6 °C -12.6 °C 34496.6 hPa WSW 32.8 km/h 32.8 km/h 50 % 0 mm
14:54 -6.6 °C -12.6 °C 34496.6 hPa NW 20.9 km/h 20.9 km/h 50 % 0 mm
14:59 -6.3 °C -12.3 °C 34496.6 hPa WSW 25.9 km/h 25.9 km/h 50 % 0 mm
15:04 -6.5 °C -12.4 °C 34496.6 hPa West 15 km/h 15 km/h 50 % 0 mm
15:09 -6.4 °C -12.4 °C 34462.7 hPa SW 20.9 km/h 20.9 km/h 50 % 0 mm
15:14 -6.5 °C -12.7 °C 34462.7 hPa SSW 20.9 km/h 20.9 km/h 49 % 0 mm
15:19 -6.5 °C -12.7 °C 34462.7 hPa SW 20.9 km/h 20.9 km/h 49 % 0 mm
15:24 -6.2 °C -12.4 °C 34462.7 hPa WSW 16.1 km/h 16.1 km/h 49 % 0 mm
15:29 -6.5 °C -12.7 °C 34462.7 hPa SW 26.9 km/h 26.9 km/h 49 % 0 mm
15:34 -6.6 °C -12.7 °C 34462.7 hPa WSW 27.2 km/h 27.2 km/h 49 % 0 mm
15:39 -6.7 °C -12.8 °C 34428.8 hPa SSW 29.8 km/h 29.8 km/h 49 % 0 mm
15:44 -6.6 °C -12.7 °C 34428.8 hPa WSW 20.9 km/h 20.9 km/h 49 % 0 mm
15:49 -6.7 °C -12.8 °C 34428.8 hPa West 35.7 km/h 35.7 km/h 49 % 0 mm
15:54 -6.8 °C -12.9 °C 34462.7 hPa SSW 32.8 km/h 32.8 km/h 49 % 0 mm
15:59 -6.6 °C -12.7 °C 34462.7 hPa West 23.8 km/h 23.8 km/h 49 % 0 mm
16:04 -6.6 °C -12.7 °C 34462.7 hPa SW 17.9 km/h 17.9 km/h 49 % 0 mm
16:09 -6.6 °C -12.6 °C 34462.7 hPa South 20.9 km/h 20.9 km/h 50 % 0 mm
16:14 -6.4 °C -12.4 °C 34462.7 hPa SSW 11.9 km/h 11.9 km/h 50 % 0 mm
16:19 -6.6 °C -12.7 °C 34462.7 hPa WSW 25.4 km/h 25.4 km/h 49 % 0 mm
16:24 -6.6 °C -12.7 °C 34462.7 hPa WSW 23.8 km/h 23.8 km/h 49 % 0 mm
16:29 -6.6 °C -12.7 °C 34462.7 hPa SW 17.9 km/h 17.9 km/h 49 % 0 mm
16:34 -6.7 °C -12.8 °C 34462.7 hPa SSW 32.8 km/h 32.8 km/h 49 % 0 mm
16:39 -6.8 °C -12.9 °C 34462.7 hPa SSW 29.8 km/h 29.8 km/h 49 % 0 mm
16:44 -6.7 °C -12.8 °C 34462.7 hPa West 23.8 km/h 23.8 km/h 49 % 0 mm
16:49 -6.8 °C -12.9 °C 34462.7 hPa SSW 32.8 km/h 32.8 km/h 49 % 0 mm
16:54 -7 °C -13.1 °C 34428.8 hPa WSW 23.8 km/h 23.8 km/h 49 % 0 mm
16:59 -7.1 °C -13.2 °C 34428.8 hPa WSW 26.9 km/h 26.9 km/h 49 % 0 mm
17:04 -7.1 °C -13.1 °C 34428.8 hPa SW 22 km/h 22 km/h 50 % 0 mm
17:14 -7.2 °C -13.2 °C 34462.7 hPa WSW 29.8 km/h 29.8 km/h 50 % 0 mm
17:19 -7.3 °C -13 °C 34462.7 hPa SW 23.8 km/h 23.8 km/h 51 % 0 mm
17:24 -7.2 °C -13.1 °C 34462.7 hPa South 20.9 km/h 20.9 km/h 50 % 0 mm
17:29 -7.2 °C -13.2 °C 34462.7 hPa SSW 23.8 km/h 23.8 km/h 50 % 0 mm
17:34 -7.3 °C -13 °C 34462.7 hPa SW 15 km/h 15 km/h 51 % 0 mm
17:39 -7.4 °C -13.2 °C 34462.7 hPa SSW 26.9 km/h 26.9 km/h 51 % 0 mm
17:44 -7.6 °C -13.3 °C 34462.7 hPa WSW 26.9 km/h 26.9 km/h 51 % 0 mm
17:49 -7.7 °C -13.6 °C 34462.7 hPa SW 23.8 km/h 23.8 km/h 50 % 0 mm
17:54 -7.7 °C -13.4 °C 34462.7 hPa SW 15.6 km/h 15.6 km/h 51 % 0 mm
17:59 -7.8 °C -13.5 °C 34462.7 hPa SW 25.9 km/h 25.9 km/h 51 % 0 mm
18:09 -8.1 °C -13.9 °C 34462.7 hPa SW 26.9 km/h 26.9 km/h 50 % 0 mm
18:14 -8.2 °C -13.9 °C 34462.7 hPa SSE 20.3 km/h 20.3 km/h 51 % 0 mm
18:24 -8.4 °C -13.9 °C 34428.8 hPa WSW 26.9 km/h 26.9 km/h 52 % 0 mm
18:29 -8.5 °C -14 °C 34428.8 hPa SW 22 km/h 22 km/h 52 % 0 mm
18:34 -8.6 °C -13.9 °C 34428.8 hPa SSW 23.8 km/h 23.8 km/h 53 % 0 mm
18:39 -8.7 °C -14.1 °C 34462.7 hPa SW 12.7 km/h 12.7 km/h 53 % 0 mm
18:44 -8.8 °C -13.9 °C 34462.7 hPa WSW 15.6 km/h 15.6 km/h 54 % 0 mm
18:49 -8.8 °C -14 °C 34462.7 hPa WSW 20.9 km/h 20.9 km/h 54 % 0 mm
18:54 -8.9 °C -14.1 °C 34462.7 hPa SW 16.6 km/h 16.6 km/h 54 % 0 mm
18:59 -9 °C -14.2 °C 34462.7 hPa SSW 15.3 km/h 15.3 km/h 54 % 0 mm
19:04 -9.1 °C -14.3 °C 34462.7 hPa SSE 15.6 km/h 15.6 km/h 54 % 0 mm
19:09 -9.2 °C -14.5 °C 34462.7 hPa WSW 11.9 km/h 11.9 km/h 53 % 0 mm
19:14 -9.3 °C -14.4 °C 34462.7 hPa SSW 15 km/h 15 km/h 54 % 0 mm
19:19 -9.4 °C -14.7 °C 34462.7 hPa SW 17.9 km/h 17.9 km/h 53 % 0 mm
19:24 -9.4 °C -14.6 °C 34462.7 hPa WSW 16.1 km/h 16.1 km/h 54 % 0 mm
19:29 -9.5 °C -14.6 °C 34462.7 hPa WSW 17.9 km/h 17.9 km/h 54 % 0 mm
19:34 -9.6 °C -14.7 °C 34462.7 hPa SW 19.6 km/h 19.6 km/h 54 % 0 mm
19:39 -9.7 °C -14.8 °C 34462.7 hPa SSW 17.9 km/h 17.9 km/h 54 % 0 mm
19:44 -9.8 °C -14.9 °C 34462.7 hPa SSW 15 km/h 15 km/h 54 % 0 mm
19:49 -9.8 °C -14.9 °C 34462.7 hPa WSW 17.9 km/h 17.9 km/h 54 % 0 mm
19:54 -9.8 °C -14.9 °C 34428.8 hPa SW 15 km/h 15 km/h 54 % 0 mm
19:59 -9.9 °C -15.1 °C 34428.8 hPa SW 14 km/h 14 km/h 54 % 0 mm
20:04 -9.9 °C -15.1 °C 34428.8 hPa SW 15 km/h 15 km/h 54 % 0 mm
20:09 -10 °C -15.1 °C 34462.7 hPa SSW 17.9 km/h 17.9 km/h 54 % 0 mm
20:14 -10.1 °C -15.2 °C 34462.7 hPa WSW 9.3 km/h 9.3 km/h 54 % 0 mm
20:24 -10.2 °C -15.1 °C 34462.7 hPa SW 15 km/h 15 km/h 55 % 0 mm
20:29 -10.2 °C -15.1 °C 34462.7 hPa SW 11.9 km/h 11.9 km/h 55 % 0 mm
20:34 -10.2 °C -15.2 °C 34462.7 hPa WSW 9 km/h 9 km/h 55 % 0 mm
20:39 -10.3 °C -15.2 °C 34462.7 hPa WSW 9 km/h 9 km/h 55 % 0 mm
20:44 -10.3 °C -15.1 °C 34462.7 hPa SW 11.9 km/h 11.9 km/h 56 % 0 mm
20:49 -10.3 °C -15.1 °C 34462.7 hPa WSW 11.9 km/h 11.9 km/h 56 % 0 mm
20:54 -10.3 °C -15.1 °C 34462.7 hPa WSW 20.9 km/h 20.9 km/h 56 % 0 mm
20:59 -10.3 °C -14.9 °C 34462.7 hPa SW 17.9 km/h 17.9 km/h 57 % 0 mm
21:04 -10.4 °C -14.9 °C 34462.7 hPa SW 17.9 km/h 17.9 km/h 58 % 0 mm
21:09 -10.4 °C -14.9 °C 34462.7 hPa SSW 11.9 km/h 11.9 km/h 58 % 0 mm
21:14 -10.4 °C -14.8 °C 34462.7 hPa SSW 11.9 km/h 11.9 km/h 59 % 0 mm
21:19 -10.4 °C -14.7 °C 34462.7 hPa WSW 11.9 km/h 11.9 km/h 60 % 0 mm
21:24 -10.5 °C -14.6 °C 34462.7 hPa West 11.9 km/h 11.9 km/h 61 % 0 mm
21:29 -10.5 °C -14.4 °C 34462.7 hPa SW 11.1 km/h 11.1 km/h 62 % 0 mm
21:34 -10.5 °C -14.3 °C 34462.7 hPa WSW 15 km/h 15 km/h 63 % 0 mm
21:39 -10.6 °C -14.3 °C 34462.7 hPa West 11.9 km/h 11.9 km/h 64 % 0 mm
21:44 -10.6 °C -14.3 °C 34462.7 hPa West 5.6 km/h 5.6 km/h 64 % 0 mm
21:49 -10.6 °C -14.2 °C 34462.7 hPa WSW 11.9 km/h 11.9 km/h 65 % 0 mm
21:54 -10.6 °C -14.2 °C 34462.7 hPa SW 9.3 km/h 9.3 km/h 65 % 0 mm
21:59 -10.6 °C -13.9 °C 34462.7 hPa SW 15 km/h 15 km/h 67 % 0 mm
22:04 -10.7 °C -14 °C 34462.7 hPa SW 11.9 km/h 11.9 km/h 67 % 0 mm
22:09 -10.7 °C -14 °C 34428.8 hPa SW 8.5 km/h 8.5 km/h 67 % 0 mm
22:14 -10.7 °C -14.1 °C 34428.8 hPa SW 7.6 km/h 7.6 km/h 67 % 0 mm
22:19 -10.7 °C -14.1 °C 34428.8 hPa WSW 8.5 km/h 8.5 km/h 67 % 0 mm
22:24 -10.7 °C -13.9 °C 34462.7 hPa WSW 11.9 km/h 11.9 km/h 68 % 0 mm
22:29 -10.8 °C -14 °C 34462.7 hPa WSW 9 km/h 9 km/h 68 % 0 mm
22:34 -10.8 °C -14 °C 34462.7 hPa SW 9 km/h 9 km/h 68 % 0 mm
22:39 -10.8 °C -14 °C 34462.7 hPa West 7.6 km/h 7.6 km/h 68 % 0 mm
22:44 -10.8 °C -13.9 °C 34462.7 hPa WSW 6 km/h 6 km/h 69 % 0 mm
22:49 -10.8 °C -13.9 °C 34462.7 hPa WSW 9.8 km/h 9.8 km/h 69 % 0 mm
22:54 -10.8 °C -13.9 °C 34462.7 hPa SW 9 km/h 9 km/h 69 % 0 mm
22:59 -10.9 °C -13.9 °C 34462.7 hPa WSW 6 km/h   69 % 0 mm
23:04 -10.9 °C -13.9 °C 34462.7 hPa WSW 5.6 km/h 5.6 km/h 69 % 0 mm
23:09 -10.9 °C -14 °C 34462.7 hPa West 11.9 km/h 11.9 km/h 69 % 0 mm
23:14 -11 °C -13.9 °C 34462.7 hPa WNW 6 km/h 6 km/h 70 % 0 mm
23:19 -11.1 °C -14 °C 34462.7 hPa SSW 3.1 km/h 3.1 km/h 70 % 0 mm
23:24 -11.1 °C -14 °C 34462.7 hPa NNW 11.9 km/h 11.9 km/h 70 % 0 mm
23:29 -11.1 °C -14 °C 34462.7 hPa WNW 6 km/h 6 km/h 70 % 0 mm
23:34 -11.1 °C -14 °C 34462.7 hPa NW 6 km/h 6 km/h 70 % 0 mm
23:39 -11 °C -13.9 °C 34462.7 hPa WSW 9 km/h 9 km/h 70 % 0 mm
Meteo Sesrovires
Elogis d' Weather Underground - 2 mb

Guio original per  Jim McMurry - jmcmurry@mwt.net Adaptat per a la plantilla per  Wim van der Kuil - Leuven-Template.eu

Trobareu la nostra informacio del temps tambe a:

Weather Underground

AWEKAS